KDAA/DAA METAR and TAF weather

Enter ICAO airport designator
Station Type Date Time Source
KDAA METAR 2018/01/23 00:56 UTC NOAA

KDAA 230056Z AUTO 14005KT 10SM CLR 12/06 A3000 RMK AO2 SLP162 T01210057 $


Station Type Date Time Source
KDAA Decoded METAR 2018/01/23 00:56 UTC NOAA

Fort Belvoir, VA, United States (KDAA) 38-43N 077-11W
Jan 22, 2018 - 07:56 PM EST / 2018.01.23 0056 UTC
Wind: from the SE (140 degrees) at 6 MPH (5 KT):0
Visibility: 10 mile(s):0
Sky conditions: clear
Temperature: 53.8 F (12.1 C)
Dew Point: 42.3 F (5.7 C)
Relative Humidity: 64%
Pressure (altimeter): 30 in. Hg (1015 hPa)
ob: KDAA 230056Z AUTO 14005KT 10SM CLR 12/06 A3000 RMK AO2 SLP162 T01210057
cycle: 1

Station Type Date Time Source
KDAA TAF 2018/01/22 18:06 UTC NOAA

TAF KDAA 221800Z 2218/2324 19009KT 9999 SCT050 BKN120 QNH2980INS
BECMG 2308/2309 18012KT 8000 -RA OVC020 WS010/20045KT QNH2970INS
BECMG 2314/2315 19015G25KT 6000 -RA OVC015 QNH2957INS
BECMG 2318/2319 24025G35KT 9999 NSW OVC035 510003 QNH2960INS TX19/2317Z TN13/2303Z


Example: see airport list